sensor_id;sensor_type;location;lat;lon;timestamp;P1;durP1;ratioP1;P2;durP2;ratioP2
70303;SDS011;57712;48.752;11.348;2024-01-16T00:00:56;7.25;;;2.53;;
70303;SDS011;57712;48.752;11.348;2024-01-16T00:03:23;6.78;;;2.80;;
70303;SDS011;57712;48.752;11.348;2024-01-16T00:05:50;7.38;;;2.90;;
70303;SDS011;57712;48.752;11.348;2024-01-16T00:08:17;7.18;;;2.78;;
70303;SDS011;57712;48.752;11.348;2024-01-16T00:10:43;7.10;;;2.92;;
70303;SDS011;57712;48.752;11.348;2024-01-16T00:13:10;8.65;;;2.72;;
70303;SDS011;57712;48.752;11.348;2024-01-16T00:15:37;9.77;;;3.30;;
70303;SDS011;57712;48.752;11.348;2024-01-16T00:18:03;8.10;;;2.83;;
70303;SDS011;57712;48.752;11.348;2024-01-16T00:20:30;8.60;;;2.95;;
70303;SDS011;57712;48.752;11.348;2024-01-16T00:22:57;7.05;;;2.30;;
70303;SDS011;57712;48.752;11.348;2024-01-16T00:25:24;7.90;;;2.65;;
70303;SDS011;57712;48.752;11.348;2024-01-16T00:27:50;8.07;;;2.65;;
70303;SDS011;57712;48.752;11.348;2024-01-16T00:30:18;6.55;;;2.33;;
70303;SDS011;57712;48.752;11.348;2024-01-16T00:32:44;7.75;;;2.88;;
70303;SDS011;57712;48.752;11.348;2024-01-16T00:35:12;7.40;;;2.22;;
70303;SDS011;57712;48.752;11.348;2024-01-16T00:37:39;6.45;;;2.30;;
70303;SDS011;57712;48.752;11.348;2024-01-16T00:40:06;6.97;;;2.70;;
70303;SDS011;57712;48.752;11.348;2024-01-16T00:42:36;7.25;;;2.38;;
70303;SDS011;57712;48.752;11.348;2024-01-16T00:45:03;8.05;;;2.35;;
70303;SDS011;57712;48.752;11.348;2024-01-16T00:47:30;7.97;;;2.50;;
70303;SDS011;57712;48.752;11.348;2024-01-16T00:49:58;7.75;;;2.63;;
70303;SDS011;57712;48.752;11.348;2024-01-16T00:52:28;6.38;;;2.20;;
70303;SDS011;57712;48.752;11.348;2024-01-16T00:54:55;7.95;;;2.63;;
70303;SDS011;57712;48.752;11.348;2024-01-16T00:57:21;7.78;;;3.05;;
70303;SDS011;57712;48.752;11.348;2024-01-16T00:59:48;8.65;;;2.65;;
70303;SDS011;57712;48.752;11.348;2024-01-16T01:02:15;7.07;;;2.60;;
70303;SDS011;57712;48.752;11.348;2024-01-16T01:04:42;7.35;;;3.13;;
70303;SDS011;57712;48.752;11.348;2024-01-16T01:07:12;6.35;;;1.92;;
70303;SDS011;57712;48.752;11.348;2024-01-16T01:09:39;7.35;;;2.83;;
70303;SDS011;57712;48.752;11.348;2024-01-16T01:12:06;6.70;;;2.75;;
70303;SDS011;57712;48.752;11.348;2024-01-16T01:14:34;8.40;;;2.53;;
70303;SDS011;57712;48.752;11.348;2024-01-16T01:17:01;6.93;;;3.05;;
70303;SDS011;57712;48.752;11.348;2024-01-16T01:19:28;8.02;;;2.63;;
70303;SDS011;57712;48.752;11.348;2024-01-16T01:21:54;7.85;;;2.75;;
70303;SDS011;57712;48.752;11.348;2024-01-16T01:24:21;7.03;;;2.63;;
70303;SDS011;57712;48.752;11.348;2024-01-16T01:26:48;8.02;;;2.85;;
70303;SDS011;57712;48.752;11.348;2024-01-16T01:29:14;6.88;;;2.20;;
70303;SDS011;57712;48.752;11.348;2024-01-16T01:31:44;8.80;;;2.80;;
70303;SDS011;57712;48.752;11.348;2024-01-16T01:34:12;9.05;;;2.95;;
70303;SDS011;57712;48.752;11.348;2024-01-16T01:36:38;10.05;;;3.00;;
70303;SDS011;57712;48.752;11.348;2024-01-16T01:39:05;10.02;;;2.85;;
70303;SDS011;57712;48.752;11.348;2024-01-16T01:41:32;7.82;;;2.85;;
70303;SDS011;57712;48.752;11.348;2024-01-16T01:43:59;7.78;;;3.15;;
70303;SDS011;57712;48.752;11.348;2024-01-16T01:46:26;9.27;;;2.72;;
70303;SDS011;57712;48.752;11.348;2024-01-16T01:48:53;9.68;;;3.28;;
70303;SDS011;57712;48.752;11.348;2024-01-16T01:51:21;8.05;;;3.10;;
70303;SDS011;57712;48.752;11.348;2024-01-16T01:53:48;6.32;;;2.60;;
70303;SDS011;57712;48.752;11.348;2024-01-16T01:56:18;10.15;;;3.22;;
70303;SDS011;57712;48.752;11.348;2024-01-16T01:58:47;8.48;;;2.53;;
70303;SDS011;57712;48.752;11.348;2024-01-16T02:01:16;7.00;;;2.90;;
70303;SDS011;57712;48.752;11.348;2024-01-16T02:03:45;13.25;;;2.80;;
70303;SDS011;57712;48.752;11.348;2024-01-16T02:06:13;8.75;;;2.92;;
70303;SDS011;57712;48.752;11.348;2024-01-16T02:08:42;7.80;;;2.53;;
70303;SDS011;57712;48.752;11.348;2024-01-16T02:11:09;8.07;;;2.78;;
70303;SDS011;57712;48.752;11.348;2024-01-16T02:13:36;8.50;;;3.17;;
70303;SDS011;57712;48.752;11.348;2024-01-16T02:16:10;7.90;;;2.67;;
70303;SDS011;57712;48.752;11.348;2024-01-16T02:18:43;7.65;;;2.75;;
70303;SDS011;57712;48.752;11.348;2024-01-16T02:21:10;8.55;;;3.33;;
70303;SDS011;57712;48.752;11.348;2024-01-16T02:23:39;7.35;;;2.60;;
70303;SDS011;57712;48.752;11.348;2024-01-16T02:26:05;6.38;;;2.22;;
70303;SDS011;57712;48.752;11.348;2024-01-16T02:28:32;8.32;;;2.90;;
70303;SDS011;57712;48.752;11.348;2024-01-16T02:30:59;8.25;;;2.70;;
70303;SDS011;57712;48.752;11.348;2024-01-16T02:33:26;6.57;;;2.25;;
70303;SDS011;57712;48.752;11.348;2024-01-16T02:35:52;9.55;;;2.85;;
70303;SDS011;57712;48.752;11.348;2024-01-16T02:38:19;9.85;;;2.90;;
70303;SDS011;57712;48.752;11.348;2024-01-16T02:40:46;10.10;;;2.95;;
70303;SDS011;57712;48.752;11.348;2024-01-16T02:43:13;8.32;;;2.72;;
70303;SDS011;57712;48.752;11.348;2024-01-16T02:45:40;8.13;;;2.88;;
70303;SDS011;57712;48.752;11.348;2024-01-16T02:48:07;8.23;;;2.72;;
70303;SDS011;57712;48.752;11.348;2024-01-16T02:50:34;8.25;;;2.67;;
70303;SDS011;57712;48.752;11.348;2024-01-16T02:53:01;8.40;;;3.40;;
70303;SDS011;57712;48.752;11.348;2024-01-16T02:55:27;6.97;;;2.53;;
70303;SDS011;57712;48.752;11.348;2024-01-16T02:57:54;8.45;;;2.72;;
70303;SDS011;57712;48.752;11.348;2024-01-16T03:00:21;7.90;;;2.97;;
70303;SDS011;57712;48.752;11.348;2024-01-16T03:02:49;7.50;;;3.35;;
70303;SDS011;57712;48.752;11.348;2024-01-16T03:05:16;9.50;;;3.40;;
70303;SDS011;57712;48.752;11.348;2024-01-16T03:07:43;9.27;;;3.17;;
70303;SDS011;57712;48.752;11.348;2024-01-16T03:10:10;8.38;;;3.15;;
70303;SDS011;57712;48.752;11.348;2024-01-16T03:12:36;10.45;;;3.13;;
70303;SDS011;57712;48.752;11.348;2024-01-16T03:15:03;7.95;;;2.50;;
70303;SDS011;57712;48.752;11.348;2024-01-16T03:17:30;9.77;;;2.80;;
70303;SDS011;57712;48.752;11.348;2024-01-16T03:19:57;9.32;;;2.70;;
70303;SDS011;57712;48.752;11.348;2024-01-16T03:22:24;7.82;;;2.45;;
70303;SDS011;57712;48.752;11.348;2024-01-16T03:24:52;8.85;;;3.03;;
70303;SDS011;57712;48.752;11.348;2024-01-16T03:27:18;8.07;;;2.97;;
70303;SDS011;57712;48.752;11.348;2024-01-16T03:29:45;10.25;;;3.35;;
70303;SDS011;57712;48.752;11.348;2024-01-16T03:32:12;9.80;;;2.80;;
70303;SDS011;57712;48.752;11.348;2024-01-16T03:34:39;7.68;;;2.55;;
70303;SDS011;57712;48.752;11.348;2024-01-16T03:37:07;9.40;;;3.65;;
70303;SDS011;57712;48.752;11.348;2024-01-16T03:39:33;8.93;;;2.92;;
70303;SDS011;57712;48.752;11.348;2024-01-16T03:42:00;7.13;;;2.63;;
70303;SDS011;57712;48.752;11.348;2024-01-16T03:44:27;8.10;;;2.45;;
70303;SDS011;57712;48.752;11.348;2024-01-16T03:46:54;7.22;;;2.72;;
70303;SDS011;57712;48.752;11.348;2024-01-16T03:49:21;7.53;;;2.80;;
70303;SDS011;57712;48.752;11.348;2024-01-16T03:51:48;10.63;;;3.33;;
70303;SDS011;57712;48.752;11.348;2024-01-16T03:54:15;7.00;;;2.35;;
70303;SDS011;57712;48.752;11.348;2024-01-16T03:56:44;9.57;;;2.95;;
70303;SDS011;57712;48.752;11.348;2024-01-16T03:59:11;7.93;;;2.65;;
70303;SDS011;57712;48.752;11.348;2024-01-16T04:01:38;7.72;;;2.65;;
70303;SDS011;57712;48.752;11.348;2024-01-16T04:04:05;10.02;;;2.33;;
70303;SDS011;57712;48.752;11.348;2024-01-16T04:06:33;8.30;;;2.35;;
70303;SDS011;57712;48.752;11.348;2024-01-16T04:09:00;7.95;;;2.55;;
70303;SDS011;57712;48.752;11.348;2024-01-16T04:11:27;8.30;;;2.33;;
70303;SDS011;57712;48.752;11.348;2024-01-16T04:13:54;7.15;;;2.22;;
70303;SDS011;57712;48.752;11.348;2024-01-16T04:16:21;6.65;;;2.00;;
70303;SDS011;57712;48.752;11.348;2024-01-16T04:18:47;6.88;;;2.25;;
70303;SDS011;57712;48.752;11.348;2024-01-16T04:21:14;6.53;;;2.05;;
70303;SDS011;57712;48.752;11.348;2024-01-16T04:23:45;7.68;;;2.03;;
70303;SDS011;57712;48.752;11.348;2024-01-16T04:26:12;7.03;;;2.15;;
70303;SDS011;57712;48.752;11.348;2024-01-16T04:28:39;7.38;;;2.42;;
70303;SDS011;57712;48.752;11.348;2024-01-16T04:31:06;7.38;;;2.20;;
70303;SDS011;57712;48.752;11.348;2024-01-16T04:33:33;6.70;;;2.10;;
70303;SDS011;57712;48.752;11.348;2024-01-16T04:36:00;7.68;;;2.20;;
70303;SDS011;57712;48.752;11.348;2024-01-16T04:38:27;7.15;;;1.85;;
70303;SDS011;57712;48.752;11.348;2024-01-16T04:40:54;5.50;;;2.13;;
70303;SDS011;57712;48.752;11.348;2024-01-16T04:43:20;7.80;;;2.95;;
70303;SDS011;57712;48.752;11.348;2024-01-16T04:45:47;7.97;;;2.38;;
70303;SDS011;57712;48.752;11.348;2024-01-16T04:48:14;7.75;;;2.25;;
70303;SDS011;57712;48.752;11.348;2024-01-16T04:50:41;6.28;;;2.20;;
70303;SDS011;57712;48.752;11.348;2024-01-16T04:53:07;8.57;;;2.75;;
70303;SDS011;57712;48.752;11.348;2024-01-16T04:55:34;6.35;;;2.33;;
70303;SDS011;57712;48.752;11.348;2024-01-16T04:58:01;5.63;;;2.28;;
70303;SDS011;57712;48.752;11.348;2024-01-16T05:00:28;7.18;;;2.25;;
70303;SDS011;57712;48.752;11.348;2024-01-16T05:02:55;6.85;;;2.47;;
70303;SDS011;57712;48.752;11.348;2024-01-16T05:05:21;7.00;;;1.95;;
70303;SDS011;57712;48.752;11.348;2024-01-16T05:07:52;7.50;;;2.90;;
70303;SDS011;57712;48.752;11.348;2024-01-16T05:10:20;7.93;;;2.47;;
70303;SDS011;57712;48.752;11.348;2024-01-16T05:12:47;10.57;;;3.45;;
70303;SDS011;57712;48.752;11.348;2024-01-16T05:15:13;6.30;;;2.22;;
70303;SDS011;57712;48.752;11.348;2024-01-16T05:17:41;7.43;;;2.50;;
70303;SDS011;57712;48.752;11.348;2024-01-16T05:20:08;12.10;;;4.07;;
70303;SDS011;57712;48.752;11.348;2024-01-16T05:22:36;8.30;;;3.30;;
70303;SDS011;57712;48.752;11.348;2024-01-16T05:25:05;9.50;;;3.80;;
70303;SDS011;57712;48.752;11.348;2024-01-16T05:27:33;8.95;;;3.10;;
70303;SDS011;57712;48.752;11.348;2024-01-16T05:30:00;10.13;;;3.30;;
70303;SDS011;57712;48.752;11.348;2024-01-16T05:32:27;10.02;;;3.65;;
70303;SDS011;57712;48.752;11.348;2024-01-16T05:34:54;13.98;;;5.07;;
70303;SDS011;57712;48.752;11.348;2024-01-16T05:37:21;7.07;;;2.13;;
70303;SDS011;57712;48.752;11.348;2024-01-16T05:39:48;7.88;;;2.30;;
70303;SDS011;57712;48.752;11.348;2024-01-16T05:42:14;7.40;;;2.35;;
70303;SDS011;57712;48.752;11.348;2024-01-16T05:44:42;6.10;;;1.92;;
70303;SDS011;57712;48.752;11.348;2024-01-16T05:47:08;8.02;;;2.30;;
70303;SDS011;57712;48.752;11.348;2024-01-16T05:49:35;5.63;;;1.73;;
70303;SDS011;57712;48.752;11.348;2024-01-16T05:52:02;7.53;;;2.15;;
70303;SDS011;57712;48.752;11.348;2024-01-16T05:54:29;7.07;;;1.88;;
70303;SDS011;57712;48.752;11.348;2024-01-16T05:56:55;9.82;;;2.28;;
70303;SDS011;57712;48.752;11.348;2024-01-16T05:59:22;6.15;;;1.90;;
70303;SDS011;57712;48.752;11.348;2024-01-16T06:01:49;6.03;;;2.03;;
70303;SDS011;57712;48.752;11.348;2024-01-16T06:04:16;7.32;;;2.50;;
70303;SDS011;57712;48.752;11.348;2024-01-16T06:06:43;6.70;;;1.92;;
70303;SDS011;57712;48.752;11.348;2024-01-16T06:09:12;6.35;;;1.85;;
70303;SDS011;57712;48.752;11.348;2024-01-16T06:11:40;7.13;;;2.50;;
70303;SDS011;57712;48.752;11.348;2024-01-16T06:14:07;8.20;;;2.30;;
70303;SDS011;57712;48.752;11.348;2024-01-16T06:16:38;6.45;;;2.30;;
70303;SDS011;57712;48.752;11.348;2024-01-16T06:19:05;6.18;;;2.10;;
70303;SDS011;57712;48.752;11.348;2024-01-16T06:21:32;6.07;;;1.98;;
70303;SDS011;57712;48.752;11.348;2024-01-16T06:23:59;7.45;;;3.22;;
70303;SDS011;57712;48.752;11.348;2024-01-16T06:26:35;7.35;;;2.15;;
70303;SDS011;57712;48.752;11.348;2024-01-16T06:29:01;7.90;;;2.72;;
70303;SDS011;57712;48.752;11.348;2024-01-16T06:31:28;6.93;;;2.22;;
70303;SDS011;57712;48.752;11.348;2024-01-16T06:33:55;7.72;;;2.22;;
70303;SDS011;57712;48.752;11.348;2024-01-16T06:36:22;7.05;;;2.85;;
70303;SDS011;57712;48.752;11.348;2024-01-16T06:38:49;9.35;;;2.35;;
70303;SDS011;57712;48.752;11.348;2024-01-16T06:41:16;6.28;;;2.08;;
70303;SDS011;57712;48.752;11.348;2024-01-16T06:43:43;7.25;;;2.40;;
70303;SDS011;57712;48.752;11.348;2024-01-16T06:46:09;7.00;;;2.50;;
70303;SDS011;57712;48.752;11.348;2024-01-16T06:48:38;7.07;;;2.40;;
70303;SDS011;57712;48.752;11.348;2024-01-16T06:51:05;7.57;;;2.55;;
70303;SDS011;57712;48.752;11.348;2024-01-16T06:53:34;8.35;;;2.97;;
70303;SDS011;57712;48.752;11.348;2024-01-16T06:56:01;8.68;;;3.17;;
70303;SDS011;57712;48.752;11.348;2024-01-16T06:58:29;7.60;;;2.50;;
70303;SDS011;57712;48.752;11.348;2024-01-16T07:00:56;8.13;;;3.00;;
70303;SDS011;57712;48.752;11.348;2024-01-16T07:03:23;7.93;;;2.58;;
70303;SDS011;57712;48.752;11.348;2024-01-16T07:05:50;8.00;;;2.42;;
70303;SDS011;57712;48.752;11.348;2024-01-16T07:08:17;8.73;;;2.50;;
70303;SDS011;57712;48.752;11.348;2024-01-16T07:10:44;8.98;;;2.85;;
70303;SDS011;57712;48.752;11.348;2024-01-16T07:13:10;7.88;;;3.00;;
70303;SDS011;57712;48.752;11.348;2024-01-16T07:15:38;7.90;;;2.97;;
70303;SDS011;57712;48.752;11.348;2024-01-16T07:18:05;8.70;;;2.88;;
70303;SDS011;57712;48.752;11.348;2024-01-16T07:20:34;7.43;;;2.95;;
70303;SDS011;57712;48.752;11.348;2024-01-16T07:23:00;6.95;;;2.60;;
70303;SDS011;57712;48.752;11.348;2024-01-16T07:25:27;7.53;;;2.50;;
70303;SDS011;57712;48.752;11.348;2024-01-16T07:27:54;6.68;;;2.40;;
70303;SDS011;57712;48.752;11.348;2024-01-16T07:30:21;9.27;;;3.03;;
70303;SDS011;57712;48.752;11.348;2024-01-16T07:32:47;12.05;;;3.38;;
70303;SDS011;57712;48.752;11.348;2024-01-16T07:35:15;10.60;;;4.68;;
70303;SDS011;57712;48.752;11.348;2024-01-16T07:37:42;16.67;;;7.78;;
70303;SDS011;57712;48.752;11.348;2024-01-16T07:40:09;13.70;;;4.55;;
70303;SDS011;57712;48.752;11.348;2024-01-16T07:42:36;8.45;;;3.70;;
70303;SDS011;57712;48.752;11.348;2024-01-16T07:45:03;9.18;;;3.45;;
70303;SDS011;57712;48.752;11.348;2024-01-16T07:47:31;8.10;;;2.58;;
70303;SDS011;57712;48.752;11.348;2024-01-16T07:50:01;9.48;;;4.15;;
70303;SDS011;57712;48.752;11.348;2024-01-16T07:52:32;11.10;;;5.57;;
70303;SDS011;57712;48.752;11.348;2024-01-16T07:54:59;10.43;;;4.25;;
70303;SDS011;57712;48.752;11.348;2024-01-16T07:57:26;8.75;;;3.05;;
70303;SDS011;57712;48.752;11.348;2024-01-16T07:59:53;9.32;;;3.03;;
70303;SDS011;57712;48.752;11.348;2024-01-16T08:02:19;7.63;;;2.75;;
70303;SDS011;57712;48.752;11.348;2024-01-16T08:04:49;8.45;;;2.72;;
70303;SDS011;57712;48.752;11.348;2024-01-16T08:07:16;21.63;;;10.48;;
70303;SDS011;57712;48.752;11.348;2024-01-16T08:09:44;23.33;;;12.23;;
70303;SDS011;57712;48.752;11.348;2024-01-16T08:12:10;20.38;;;11.65;;
70303;SDS011;57712;48.752;11.348;2024-01-16T08:14:37;36.00;;;24.77;;
70303;SDS011;57712;48.752;11.348;2024-01-16T08:17:04;19.13;;;9.70;;
70303;SDS011;57712;48.752;11.348;2024-01-16T08:19:30;9.80;;;3.90;;
70303;SDS011;57712;48.752;11.348;2024-01-16T08:21:59;8.57;;;2.83;;
70303;SDS011;57712;48.752;11.348;2024-01-16T08:24:26;9.00;;;2.78;;
70303;SDS011;57712;48.752;11.348;2024-01-16T08:26:52;6.93;;;2.50;;
70303;SDS011;57712;48.752;11.348;2024-01-16T08:29:19;9.50;;;2.80;;
70303;SDS011;57712;48.752;11.348;2024-01-16T08:31:46;7.85;;;2.83;;
70303;SDS011;57712;48.752;11.348;2024-01-16T08:34:13;7.70;;;2.92;;
70303;SDS011;57712;48.752;11.348;2024-01-16T08:36:40;8.63;;;2.45;;
70303;SDS011;57712;48.752;11.348;2024-01-16T08:39:06;7.97;;;2.70;;
70303;SDS011;57712;48.752;11.348;2024-01-16T08:41:33;7.00;;;2.45;;
70303;SDS011;57712;48.752;11.348;2024-01-16T08:44:00;25.35;;;9.23;;
70303;SDS011;57712;48.752;11.348;2024-01-16T08:46:27;8.60;;;3.58;;
70303;SDS011;57712;48.752;11.348;2024-01-16T08:48:53;8.35;;;3.00;;
70303;SDS011;57712;48.752;11.348;2024-01-16T08:51:21;10.18;;;3.90;;
70303;SDS011;57712;48.752;11.348;2024-01-16T08:53:47;11.88;;;4.30;;
70303;SDS011;57712;48.752;11.348;2024-01-16T08:56:14;11.20;;;5.38;;
70303;SDS011;57712;48.752;11.348;2024-01-16T08:58:40;10.35;;;4.28;;
70303;SDS011;57712;48.752;11.348;2024-01-16T09:01:07;9.77;;;3.70;;
70303;SDS011;57712;48.752;11.348;2024-01-16T09:03:34;9.20;;;4.10;;
70303;SDS011;57712;48.752;11.348;2024-01-16T09:06:01;10.70;;;4.57;;
70303;SDS011;57712;48.752;11.348;2024-01-16T09:08:28;7.65;;;3.38;;
70303;SDS011;57712;48.752;11.348;2024-01-16T09:10:56;8.65;;;5.07;;
70303;SDS011;57712;48.752;11.348;2024-01-16T09:13:23;9.68;;;5.20;;
70303;SDS011;57712;48.752;11.348;2024-01-16T09:15:50;13.15;;;10.13;;
70303;SDS011;57712;48.752;11.348;2024-01-16T09:18:16;9.85;;;5.70;;
70303;SDS011;57712;48.752;11.348;2024-01-16T09:20:43;10.05;;;7.18;;
70303;SDS011;57712;48.752;11.348;2024-01-16T09:23:10;8.75;;;3.60;;
70303;SDS011;57712;48.752;11.348;2024-01-16T09:25:37;8.98;;;3.85;;
70303;SDS011;57712;48.752;11.348;2024-01-16T09:28:04;12.80;;;6.30;;
70303;SDS011;57712;48.752;11.348;2024-01-16T09:30:30;9.95;;;4.40;;
70303;SDS011;57712;48.752;11.348;2024-01-16T09:32:57;10.27;;;3.67;;
70303;SDS011;57712;48.752;11.348;2024-01-16T09:35:24;9.00;;;3.30;;
70303;SDS011;57712;48.752;11.348;2024-01-16T09:37:51;9.25;;;3.63;;
70303;SDS011;57712;48.752;11.348;2024-01-16T09:40:17;9.40;;;4.07;;
70303;SDS011;57712;48.752;11.348;2024-01-16T09:42:44;8.43;;;3.22;;
70303;SDS011;57712;48.752;11.348;2024-01-16T09:45:11;10.27;;;3.67;;
70303;SDS011;57712;48.752;11.348;2024-01-16T09:47:44;7.63;;;3.10;;
70303;SDS011;57712;48.752;11.348;2024-01-16T09:50:13;7.65;;;3.13;;
70303;SDS011;57712;48.752;11.348;2024-01-16T09:52:44;8.73;;;3.40;;
70303;SDS011;57712;48.752;11.348;2024-01-16T09:55:12;8.45;;;3.53;;
70303;SDS011;57712;48.752;11.348;2024-01-16T09:57:40;8.43;;;3.15;;
70303;SDS011;57712;48.752;11.348;2024-01-16T10:00:08;9.60;;;4.30;;
70303;SDS011;57712;48.752;11.348;2024-01-16T10:02:39;10.85;;;4.03;;
70303;SDS011;57712;48.752;11.348;2024-01-16T10:05:07;8.55;;;3.28;;
70303;SDS011;57712;48.752;11.348;2024-01-16T10:07:40;6.55;;;2.70;;
70303;SDS011;57712;48.752;11.348;2024-01-16T10:10:11;6.70;;;2.53;;
70303;SDS011;57712;48.752;11.348;2024-01-16T10:12:39;7.30;;;3.00;;
70303;SDS011;57712;48.752;11.348;2024-01-16T10:15:06;7.35;;;2.72;;
70303;SDS011;57712;48.752;11.348;2024-01-16T10:17:38;8.27;;;3.25;;
70303;SDS011;57712;48.752;11.348;2024-01-16T10:20:06;7.13;;;2.58;;
70303;SDS011;57712;48.752;11.348;2024-01-16T10:22:34;8.80;;;3.63;;
70303;SDS011;57712;48.752;11.348;2024-01-16T10:27:35;8.30;;;3.05;;
70303;SDS011;57712;48.752;11.348;2024-01-16T10:30:03;7.38;;;3.33;;
70303;SDS011;57712;48.752;11.348;2024-01-16T10:32:34;9.48;;;3.20;;
70303;SDS011;57712;48.752;11.348;2024-01-16T10:40:16;11.77;;;4.32;;
70303;SDS011;57712;48.752;11.348;2024-01-16T10:43:00;11.52;;;4.30;;
70303;SDS011;57712;48.752;11.348;2024-01-16T10:45:27;12.00;;;4.63;;
70303;SDS011;57712;48.752;11.348;2024-01-16T10:48:01;12.15;;;8.52;;
70303;SDS011;57712;48.752;11.348;2024-01-16T10:50:31;8.93;;;3.65;;
70303;SDS011;57712;48.752;11.348;2024-01-16T10:53:05;8.88;;;3.00;;
70303;SDS011;57712;48.752;11.348;2024-01-16T10:55:51;8.23;;;3.10;;
70303;SDS011;57712;48.752;11.348;2024-01-16T10:58:22;8.70;;;3.47;;
70303;SDS011;57712;48.752;11.348;2024-01-16T11:00:51;10.13;;;3.00;;
70303;SDS011;57712;48.752;11.348;2024-01-16T11:03:24;11.07;;;4.63;;
70303;SDS011;57712;48.752;11.348;2024-01-16T11:05:58;8.43;;;3.47;;
70303;SDS011;57712;48.752;11.348;2024-01-16T11:08:27;8.05;;;2.50;;
70303;SDS011;57712;48.752;11.348;2024-01-16T11:10:59;7.88;;;2.95;;
70303;SDS011;57712;48.752;11.348;2024-01-16T11:13:27;8.60;;;2.97;;
70303;SDS011;57712;48.752;11.348;2024-01-16T11:15:54;7.47;;;2.90;;
70303;SDS011;57712;48.752;11.348;2024-01-16T11:18:24;7.13;;;2.78;;
70303;SDS011;57712;48.752;11.348;2024-01-16T11:20:51;8.55;;;3.20;;
70303;SDS011;57712;48.752;11.348;2024-01-16T11:23:33;6.93;;;2.97;;
70303;SDS011;57712;48.752;11.348;2024-01-16T11:29:00;7.97;;;3.47;;
70303;SDS011;57712;48.752;11.348;2024-01-16T11:31:33;7.57;;;3.08;;
70303;SDS011;57712;48.752;11.348;2024-01-16T11:34:02;8.57;;;3.38;;
70303;SDS011;57712;48.752;11.348;2024-01-16T11:39:49;12.57;;;3.78;;
70303;SDS011;57712;48.752;11.348;2024-01-16T11:42:25;9.43;;;3.55;;
70303;SDS011;57712;48.752;11.348;2024-01-16T11:44:53;29.73;;;8.80;;
70303;SDS011;57712;48.752;11.348;2024-01-16T11:47:23;12.90;;;4.07;;
70303;SDS011;57712;48.752;11.348;2024-01-16T11:49:51;15.00;;;7.60;;
70303;SDS011;57712;48.752;11.348;2024-01-16T11:52:43;9.75;;;4.47;;
70303;SDS011;57712;48.752;11.348;2024-01-16T11:55:24;16.73;;;10.48;;
70303;SDS011;57712;48.752;11.348;2024-01-16T12:00:50;9.20;;;3.15;;
70303;SDS011;57712;48.752;11.348;2024-01-16T12:03:18;7.25;;;3.42;;
70303;SDS011;57712;48.752;11.348;2024-01-16T12:06:00;9.18;;;3.15;;
70303;SDS011;57712;48.752;11.348;2024-01-16T12:08:30;11.55;;;3.58;;
70303;SDS011;57712;48.752;11.348;2024-01-16T12:10:56;8.77;;;3.63;;
70303;SDS011;57712;48.752;11.348;2024-01-16T12:13:24;10.23;;;3.70;;
70303;SDS011;57712;48.752;11.348;2024-01-16T12:16:00;9.75;;;2.70;;
70303;SDS011;57712;48.752;11.348;2024-01-16T12:18:33;10.13;;;4.28;;
70303;SDS011;57712;48.752;11.348;2024-01-16T12:21:10;6.45;;;2.50;;
70303;SDS011;57712;48.752;11.348;2024-01-16T12:23:38;8.70;;;2.97;;
70303;SDS011;57712;48.752;11.348;2024-01-16T12:26:21;7.45;;;2.88;;
70303;SDS011;57712;48.752;11.348;2024-01-16T12:28:50;7.53;;;3.25;;
70303;SDS011;57712;48.752;11.348;2024-01-16T12:31:25;7.97;;;3.60;;
70303;SDS011;57712;48.752;11.348;2024-01-16T12:33:54;7.57;;;3.25;;
70303;SDS011;57712;48.752;11.348;2024-01-16T12:36:32;12.18;;;3.55;;
70303;SDS011;57712;48.752;11.348;2024-01-16T12:38:58;10.15;;;4.47;;
70303;SDS011;57712;48.752;11.348;2024-01-16T12:41:26;8.35;;;3.35;;
70303;SDS011;57712;48.752;11.348;2024-01-16T12:44:07;9.32;;;3.53;;
70303;SDS011;57712;48.752;11.348;2024-01-16T12:46:42;7.72;;;2.85;;
70303;SDS011;57712;48.752;11.348;2024-01-16T12:49:09;9.10;;;2.90;;
70303;SDS011;57712;48.752;11.348;2024-01-16T12:51:38;8.18;;;3.08;;
70303;SDS011;57712;48.752;11.348;2024-01-16T12:54:14;11.07;;;4.43;;
70303;SDS011;57712;48.752;11.348;2024-01-16T12:56:43;8.68;;;3.30;;
70303;SDS011;57712;48.752;11.348;2024-01-16T12:59:10;11.77;;;4.13;;
70303;SDS011;57712;48.752;11.348;2024-01-16T13:01:42;9.38;;;3.78;;
70303;SDS011;57712;48.752;11.348;2024-01-16T13:04:10;8.90;;;4.53;;
70303;SDS011;57712;48.752;11.348;2024-01-16T13:06:37;9.40;;;4.28;;
70303;SDS011;57712;48.752;11.348;2024-01-16T13:09:06;13.20;;;4.75;;
70303;SDS011;57712;48.752;11.348;2024-01-16T13:11:44;11.20;;;3.90;;
70303;SDS011;57712;48.752;11.348;2024-01-16T13:14:19;9.70;;;4.32;;
70303;SDS011;57712;48.752;11.348;2024-01-16T13:16:51;11.55;;;3.90;;
70303;SDS011;57712;48.752;11.348;2024-01-16T13:19:22;13.73;;;4.47;;
70303;SDS011;57712;48.752;11.348;2024-01-16T13:21:49;8.98;;;3.25;;
70303;SDS011;57712;48.752;11.348;2024-01-16T13:24:16;7.25;;;3.15;;
70303;SDS011;57712;48.752;11.348;2024-01-16T13:26:50;8.82;;;3.17;;
70303;SDS011;57712;48.752;11.348;2024-01-16T13:29:17;8.77;;;3.00;;
70303;SDS011;57712;48.752;11.348;2024-01-16T13:31:45;6.97;;;2.80;;
70303;SDS011;57712;48.752;11.348;2024-01-16T13:34:12;8.75;;;3.13;;
70303;SDS011;57712;48.752;11.348;2024-01-16T13:36:39;10.07;;;4.45;;
70303;SDS011;57712;48.752;11.348;2024-01-16T13:39:26;8.30;;;3.90;;
70303;SDS011;57712;48.752;11.348;2024-01-16T13:41:53;7.55;;;3.20;;
70303;SDS011;57712;48.752;11.348;2024-01-16T13:44:20;11.90;;;2.92;;
70303;SDS011;57712;48.752;11.348;2024-01-16T13:46:47;8.85;;;3.60;;
70303;SDS011;57712;48.752;11.348;2024-01-16T13:49:31;10.32;;;3.55;;
70303;SDS011;57712;48.752;11.348;2024-01-16T13:52:00;10.38;;;3.03;;
70303;SDS011;57712;48.752;11.348;2024-01-16T13:54:27;9.35;;;4.03;;
70303;SDS011;57712;48.752;11.348;2024-01-16T13:56:54;7.85;;;2.80;;
70303;SDS011;57712;48.752;11.348;2024-01-16T13:59:32;8.07;;;2.97;;
70303;SDS011;57712;48.752;11.348;2024-01-16T14:02:00;9.30;;;3.13;;
70303;SDS011;57712;48.752;11.348;2024-01-16T14:04:29;8.55;;;2.60;;
70303;SDS011;57712;48.752;11.348;2024-01-16T14:06:55;22.88;;;10.88;;
70303;SDS011;57712;48.752;11.348;2024-01-16T14:09:38;8.73;;;3.78;;
70303;SDS011;57712;48.752;11.348;2024-01-16T14:12:09;12.15;;;6.95;;
70303;SDS011;57712;48.752;11.348;2024-01-16T14:14:36;8.60;;;4.85;;
70303;SDS011;57712;48.752;11.348;2024-01-16T14:17:05;8.65;;;5.05;;
70303;SDS011;57712;48.752;11.348;2024-01-16T14:19:34;7.63;;;3.08;;
70303;SDS011;57712;48.752;11.348;2024-01-16T14:22:02;7.45;;;2.65;;
70303;SDS011;57712;48.752;11.348;2024-01-16T14:24:29;10.25;;;2.97;;
70303;SDS011;57712;48.752;11.348;2024-01-16T14:26:55;8.07;;;3.33;;
70303;SDS011;57712;48.752;11.348;2024-01-16T14:29:25;12.63;;;4.65;;
70303;SDS011;57712;48.752;11.348;2024-01-16T14:31:53;18.25;;;7.95;;
70303;SDS011;57712;48.752;11.348;2024-01-16T14:34:23;15.60;;;7.20;;
70303;SDS011;57712;48.752;11.348;2024-01-16T14:36:50;21.42;;;11.02;;
70303;SDS011;57712;48.752;11.348;2024-01-16T14:39:17;22.33;;;12.70;;
70303;SDS011;57712;48.752;11.348;2024-01-16T14:41:52;21.15;;;14.48;;
70303;SDS011;57712;48.752;11.348;2024-01-16T14:44:19;12.65;;;7.28;;
70303;SDS011;57712;48.752;11.348;2024-01-16T14:46:46;10.13;;;5.00;;
70303;SDS011;57712;48.752;11.348;2024-01-16T14:49:17;9.27;;;3.75;;
70303;SDS011;57712;48.752;11.348;2024-01-16T14:51:44;9.45;;;4.50;;
70303;SDS011;57712;48.752;11.348;2024-01-16T14:54:11;8.52;;;3.58;;